Time;durP1;ratioP1;P1;durP2;ratioP2;P2;SDS_P1;SDS_P2;PMS_P1;PMS_P2;Temp;Humidity;BMP_temperature;BMP_pressure;BME280_temperature;BME280_humidity;BME280_pressure;Samples;Min_cycle;Max_cycle;Signal;HPM_P1;HPM_P2
2021/09/14 00:02:04;;;;;;;7.75;5.70;;;17.30;78.20;;;;;;6176237;28;20511;-78
2021/09/14 00:05:06;;;;;;;6.60;5.90;;;17.20;78.20;;;;;;6175144;28;20918;-77
2021/09/14 00:08:08;;;;;;;6.35;5.38;;;17.20;78.30;;;;;;6176985;28;20450;-77
2021/09/14 00:11:10;;;;;;;6.32;5.72;;;17.20;78.50;;;;;;6201156;28;20990;-77
2021/09/14 00:14:12;;;;;;;7.55;6.70;;;17.10;78.50;;;;;;6218296;28;20424;-78
2021/09/14 00:17:15;;;;;;;7.82;5.93;;;17.10;78.60;;;;;;6197253;28;20425;-78
2021/09/14 00:20:17;;;;;;;7.03;5.97;;;17.10;78.50;;;;;;6196893;28;20528;-77
2021/09/14 00:23:19;;;;;;;6.20;5.65;;;17.00;78.40;;;;;;6196603;28;20434;-77
2021/09/14 00:26:21;;;;;;;7.68;5.80;;;17.00;78.30;;;;;;6187573;28;20510;-77
2021/09/14 00:29:22;;;;;;;5.95;5.45;;;16.90;78.00;;;;;;6175152;28;20458;-78
2021/09/14 00:32:25;;;;;;;6.60;6.00;;;16.90;78.10;;;;;;6197562;28;20434;-77
2021/09/14 00:35:28;;;;;;;8.00;6.17;;;16.90;78.30;;;;;;6197496;28;20450;-76
2021/09/14 00:38:29;;;;;;;6.50;5.80;;;16.90;78.40;;;;;;6197379;28;20461;-77
2021/09/14 00:41:31;;;;;;;8.35;5.93;;;16.80;78.40;;;;;;6197861;28;21010;-77
2021/09/14 00:44:33;;;;;;;7.60;6.78;;;16.80;78.10;;;;;;6197487;28;20434;-77
2021/09/14 00:47:36;;;;;;;7.63;6.07;;;16.70;78.70;;;;;;6198216;28;20440;-78
2021/09/14 00:50:38;;;;;;;9.20;6.47;;;16.70;78.90;;;;;;6197268;28;20502;-77
2021/09/14 00:53:40;;;;;;;6.78;6.18;;;16.70;79.00;;;;;;6197417;28;20422;-78
2021/09/14 00:56:43;;;;;;;6.95;6.15;;;16.70;79.00;;;;;;6197330;28;20430;-78
2021/09/14 00:59:45;;;;;;;6.82;6.13;;;16.60;79.40;;;;;;6197466;28;20577;-78
2021/09/14 01:02:49;;;;;;;6.55;5.95;;;16.60;79.00;;;;;;6197035;28;20634;-78
2021/09/14 01:05:51;;;;;;;8.00;6.97;;;16.70;78.80;;;;;;6198594;28;20931;-80
2021/09/14 01:08:53;;;;;;;7.93;7.15;;;16.60;78.80;;;;;;6198559;28;20424;-78
2021/09/14 01:11:55;;;;;;;7.90;6.40;;;16.60;79.50;;;;;;6188686;28;20440;-78
2021/09/14 01:14:58;;;;;;;6.97;6.18;;;16.60;79.40;;;;;;6185424;28;20422;-77
2021/09/14 01:18:03;;;;;;;6.85;6.18;;;16.70;79.40;;;;;;6180262;28;20571;-77
2021/09/14 01:21:05;;;;;;;7.65;6.82;;;16.60;79.20;;;;;;6179994;28;20415;-76
2021/09/14 01:24:09;;;;;;;9.82;6.15;;;16.60;79.00;;;;;;6181526;28;21097;-78
2021/09/14 01:27:11;;;;;;;6.80;5.95;;;16.60;78.70;;;;;;6179320;28;20423;-77
2021/09/14 01:30:16;;;;;;;6.88;6.28;;;16.50;79.00;;;;;;6178253;28;20889;-77
2021/09/14 01:33:18;;;;;;;7.93;6.40;;;16.50;79.00;;;;;;6179050;28;20427;-77
2021/09/14 01:36:21;;;;;;;7.18;6.40;;;16.50;79.20;;;;;;6179709;28;20526;-77
2021/09/14 01:39:24;;;;;;;6.10;5.60;;;16.50;78.80;;;;;;6178856;28;20830;-78
2021/09/14 01:42:26;;;;;;;6.65;6.05;;;16.50;78.60;;;;;;6179471;28;20490;-78
2021/09/14 01:45:27;;;;;;;6.22;5.68;;;16.50;79.00;;;;;;6179183;28;20994;-78
2021/09/14 01:48:29;;;;;;;6.50;5.50;;;16.40;79.00;;;;;;6178583;28;20958;-77
2021/09/14 01:51:31;;;;;;;8.00;7.07;;;16.40;78.80;;;;;;6179061;28;20817;-77
2021/09/14 01:54:34;;;;;;;7.25;6.38;;;16.40;78.70;;;;;;6178535;28;20504;-78
2021/09/14 01:57:38;;;;;;;7.22;5.55;;;16.30;78.80;;;;;;6179189;28;20423;-77
2021/09/14 02:00:45;;;;;;;10.35;6.25;;;16.20;78.90;;;;;;6178504;28;20444;-78
2021/09/14 02:03:54;;;;;;;8.75;6.40;;;16.30;79.00;;;;;;6179006;28;20447;-77
2021/09/14 02:07:17;;;;;;;6.78;6.18;;;16.20;78.70;;;;;;6178433;28;20428;-77
2021/09/14 02:43:49;;;;;;;7.93;6.73;;;16.20;78.60;;;;;;6198092;28;20432;-77
2021/09/14 03:00:25;;;;;;;6.72;6.07;;;16.30;78.70;;;;;;6200448;28;20457;-78
2021/09/14 03:03:27;;;;;;;7.80;6.72;;;16.30;78.50;;;;;;6200382;28;20908;-78
2021/09/14 03:06:28;;;;;;;7.47;6.77;;;16.20;78.40;;;;;;6201254;28;20442;-78
2021/09/14 03:09:30;;;;;;;8.27;6.95;;;16.20;78.80;;;;;;6200219;28;21221;-78
2021/09/14 03:12:32;;;;;;;7.78;6.78;;;16.20;79.50;;;;;;6194018;28;20440;-78
2021/09/14 03:15:35;;;;;;;7.03;6.43;;;16.20;78.80;;;;;;6176162;28;20477;-77
2021/09/14 03:18:38;;;;;;;7.78;6.90;;;16.20;78.70;;;;;;6175951;28;20459;-78
2021/09/14 03:21:40;;;;;;;7.80;7.10;;;16.10;78.70;;;;;;6175871;28;20439;-78
2021/09/14 03:24:42;;;;;;;6.70;6.10;;;16.10;78.60;;;;;;6176098;28;20519;-78
2021/09/14 03:27:43;;;;;;;9.15;6.75;;;16.00;78.80;;;;;;6176819;28;20519;-77
2021/09/14 03:30:48;;;;;;;8.10;7.40;;;16.00;79.00;;;;;;6175566;28;20551;-78
2021/09/14 03:33:49;;;;;;;6.67;6.10;;;16.00;79.20;;;;;;6176387;28;20536;-78
2021/09/14 03:36:51;;;;;;;7.32;6.65;;;15.90;79.00;;;;;;6176274;28;20487;-78
2021/09/14 03:39:53;;;;;;;7.37;6.77;;;15.90;79.20;;;;;;6175868;28;20459;-77
2021/09/14 03:42:55;;;;;;;7.55;6.85;;;15.90;79.20;;;;;;6181565;28;20428;-78
2021/09/14 03:45:58;;;;;;;7.95;7.30;;;15.90;79.10;;;;;;6186533;28;20444;-78
2021/09/14 03:49:02;;;;;;;9.47;7.30;;;15.90;79.20;;;;;;6178253;28;20878;-77
2021/09/14 03:52:05;;;;;;;7.57;6.88;;;15.90;79.40;;;;;;6176793;28;20458;-77
2021/09/14 03:55:07;;;;;;;8.13;7.38;;;15.90;79.40;;;;;;6175912;28;20460;-78
2021/09/14 03:58:09;;;;;;;7.10;6.50;;;15.90;79.30;;;;;;6174323;28;20947;-77
2021/09/14 04:01:13;;;;;;;6.85;6.15;;;15.90;79.00;;;;;;6174205;28;20424;-78
2021/09/14 04:04:19;;;;;;;9.45;6.38;;;15.80;79.10;;;;;;6176700;28;20440;-78
2021/09/14 04:07:24;;;;;;;8.38;7.00;;;15.80;78.80;;;;;;6176019;28;20913;-78
2021/09/14 04:10:26;;;;;;;7.10;6.50;;;15.70;79.00;;;;;;6176056;28;20559;-78
2021/09/14 04:13:28;;;;;;;7.43;6.73;;;15.60;79.00;;;;;;6179722;28;20432;-77
2021/09/14 04:16:31;;;;;;;9.60;8.23;;;15.60;79.50;;;;;;6194271;28;20438;-78
2021/09/14 04:19:33;;;;;;;8.20;7.50;;;15.60;80.10;;;;;;6199436;28;20470;-77
2021/09/14 04:22:35;;;;;;;7.32;6.60;;;15.60;79.70;;;;;;6199542;28;20510;-77
2021/09/14 04:25:37;;;;;;;7.15;6.55;;;15.50;79.80;;;;;;6199148;28;20908;-79
2021/09/14 04:28:38;;;;;;;8.15;7.35;;;15.50;79.70;;;;;;6198172;28;20469;-77
2021/09/14 04:31:42;;;;;;;8.57;6.60;;;15.50;79.80;;;;;;6196409;28;20484;-77
2021/09/14 04:34:43;;;;;;;7.20;6.43;;;15.50;79.60;;;;;;6194900;28;20418;-78
2021/09/14 04:37:45;;;;;;;7.03;6.43;;;15.50;79.60;;;;;;6195272;28;20870;-77
2021/09/14 04:40:47;;;;;;;7.43;6.72;;;15.50;79.50;;;;;;6194691;28;20466;-77
2021/09/14 04:43:49;;;;;;;8.30;6.72;;;15.40;79.30;;;;;;6195457;28;20434;-77
2021/09/14 04:46:52;;;;;;;6.88;6.18;;;15.40;79.50;;;;;;6194837;28;20919;-77
2021/09/14 04:49:54;;;;;;;7.55;6.75;;;15.30;79.50;;;;;;6194412;28;20489;-77
2021/09/14 04:52:56;;;;;;;7.22;6.53;;;15.30;79.50;;;;;;6195023;28;20941;-77
2021/09/14 04:55:58;;;;;;;7.25;6.63;;;15.20;79.60;;;;;;6195587;28;20988;-78
2021/09/14 04:58:59;;;;;;;7.97;7.18;;;15.20;79.70;;;;;;6195013;28;20497;-77
2021/09/14 05:02:03;;;;;;;7.32;6.63;;;15.20;80.90;;;;;;6195079;28;20505;-77
2021/09/14 05:05:06;;;;;;;8.18;7.38;;;15.20;80.50;;;;;;6195493;28;20435;-77
2021/09/14 05:08:07;;;;;;;14.73;7.45;;;15.20;80.80;;;;;;6195688;28;20444;-77
2021/09/14 05:11:09;;;;;;;8.88;6.72;;;15.20;80.50;;;;;;6194760;28;20456;-77
2021/09/14 05:14:11;;;;;;;8.90;6.70;;;15.20;79.90;;;;;;6188830;28;20418;-77
2021/09/14 05:17:14;;;;;;;15.15;6.53;;;15.20;80.10;;;;;;6175390;28;20421;-77
2021/09/14 05:20:16;;;;;;;18.80;7.20;;;15.30;79.80;;;;;;6170992;28;20574;-78
2021/09/14 05:23:25;;;;;;;11.20;6.53;;;15.30;79.50;;;;;;6170880;28;20549;-77
2021/09/14 05:26:26;;;;;;;15.57;7.72;;;15.30;79.50;;;;;;6219031;22;20430;-75
2021/09/14 05:29:29;;;;;;;12.90;7.35;;;15.50;79.30;;;;;;6243193;28;20505;-76
2021/09/14 05:32:32;;;;;;;13.20;6.40;;;15.50;78.80;;;;;;6241548;28;20525;-76
2021/09/14 05:35:38;;;;;;;11.10;7.20;;;15.50;78.70;;;;;;6244011;28;20509;-76
2021/09/14 05:38:41;;;;;;;11.27;6.70;;;15.60;79.10;;;;;;6242823;28;20433;-76
2021/09/14 05:41:43;;;;;;;11.67;6.97;;;15.80;78.40;;;;;;6242652;28;20425;-77
2021/09/14 05:44:45;;;;;;;8.10;6.80;;;15.90;78.00;;;;;;6243090;28;20584;-76
2021/09/14 05:47:48;;;;;;;13.20;7.00;;;16.00;78.10;;;;;;6243518;28;20544;-76
2021/09/14 05:50:50;;;;;;;6.70;6.10;;;16.10;77.80;;;;;;6225785;28;20500;-75
2021/09/14 05:53:52;;;;;;;8.80;6.30;;;16.30;77.30;;;;;;6218673;28;20503;-76
2021/09/14 05:56:54;;;;;;;13.20;6.13;;;16.30;77.00;;;;;;6218683;28;20957;-76
2021/09/14 05:59:56;;;;;;;9.18;6.22;;;16.50;77.00;;;;;;6218690;28;20433;-76
2021/09/14 06:02:59;;;;;;;13.67;6.70;;;16.60;76.80;;;;;;6221550;28;20421;-76
2021/09/14 06:06:01;;;;;;;13.83;7.87;;;16.80;76.20;;;;;;6222559;28;20420;-75
2021/09/14 06:09:03;;;;;;;13.98;6.28;;;17.00;76.40;;;;;;6222996;28;20464;-76
2021/09/14 06:12:06;;;;;;;11.07;6.13;;;17.20;75.50;;;;;;6223874;28;20520;-76
2021/09/14 06:15:09;;;;;;;9.65;5.80;;;17.30;75.20;;;;;;6237463;28;20472;-76
2021/09/14 06:18:13;;;;;;;11.15;6.18;;;17.50;74.70;;;;;;6240873;28;20423;-75
2021/09/14 06:21:15;;;;;;;12.65;7.30;;;17.70;74.30;;;;;;6246809;28;20985;-76
2021/09/14 06:24:17;;;;;;;9.60;6.50;;;17.90;74.80;;;;;;6247775;28;20430;-76
2021/09/14 06:27:19;;;;;;;8.30;7.47;;;18.00;74.20;;;;;;6246396;28;20557;-75
2021/09/14 06:30:21;;;;;;;5.97;5.47;;;18.10;74.30;;;;;;6246544;28;20981;-76
2021/09/14 06:33:24;;;;;;;7.68;5.47;;;18.30;73.80;;;;;;6246548;28;20553;-76
2021/09/14 06:36:26;;;;;;;8.75;6.22;;;18.40;73.90;;;;;;6247402;28;20472;-75
2021/09/14 06:39:28;;;;;;;9.02;7.22;;;18.50;74.10;;;;;;6246073;28;20554;-76
2021/09/14 06:42:30;;;;;;;11.75;9.27;;;18.60;74.20;;;;;;6246752;28;20415;-76
2021/09/14 06:45:32;;;;;;;11.90;8.27;;;18.70;75.10;;;;;;6246080;28;20497;-75
2021/09/14 06:48:35;;;;;;;11.63;8.60;;;18.80;74.80;;;;;;6246430;28;20577;-75
2021/09/14 06:51:37;;;;;;;10.63;9.53;;;18.90;74.50;;;;;;6246624;28;20945;-75
2021/09/14 06:54:39;;;;;;;10.63;9.52;;;19.00;75.00;;;;;;6246348;28;20573;-76
2021/09/14 06:57:41;;;;;;;11.27;8.82;;;19.20;74.20;;;;;;6246075;28;20415;-75
2021/09/14 07:00:42;;;;;;;9.95;8.95;;;19.40;74.50;;;;;;6246436;28;20518;-75
2021/09/14 07:03:46;;;;;;;8.70;7.80;;;19.60;73.20;;;;;;6252232;28;20477;-75
2021/09/14 07:06:50;;;;;;;9.63;8.77;;;20.00;72.10;;;;;;6248280;28;20501;-77
2021/09/14 07:09:52;;;;;;;11.50;9.27;;;20.30;71.10;;;;;;6245877;28;20438;-76
2021/09/14 07:12:53;;;;;;;11.48;9.50;;;20.70;70.20;;;;;;6245378;28;20540;-75
2021/09/14 07:15:55;;;;;;;12.98;11.60;;;21.00;69.50;;;;;;6243218;28;20466;-77
2021/09/14 07:18:58;;;;;;;12.98;10.60;;;21.20;68.90;;;;;;6225426;28;20425;-76
2021/09/14 07:22:00;;;;;;;12.25;10.82;;;21.30;68.60;;;;;;6221478;28;20449;-77
2021/09/14 07:25:02;;;;;;;11.40;10.30;;;21.40;68.80;;;;;;6221263;28;20615;-76
2021/09/14 07:28:05;;;;;;;12.82;11.48;;;21.70;68.40;;;;;;6221506;28;20531;-76
2021/09/14 07:31:08;;;;;;;12.52;11.02;;;22.00;67.80;;;;;;6236843;28;20505;-77
2021/09/14 07:34:11;;;;;;;11.30;10.10;;;22.30;66.60;;;;;;6245369;28;20796;-77
2021/09/14 07:37:13;;;;;;;11.32;10.23;;;22.60;65.90;;;;;;6245457;28;20508;-76
2021/09/14 07:40:15;;;;;;;10.00;8.90;;;23.00;65.00;;;;;;6245251;28;20477;-76
2021/09/14 07:43:16;;;;;;;10.30;9.32;;;23.30;63.80;;;;;;6245405;28;20451;-75
2021/09/14 07:46:18;;;;;;;11.53;8.80;;;23.60;63.10;;;;;;6244893;28;20485;-75
2021/09/14 07:49:21;;;;;;;13.38;10.27;;;23.70;62.20;;;;;;6245053;28;20426;-75
2021/09/14 07:52:24;;;;;;;9.48;8.57;;;24.00;61.90;;;;;;6245212;28;20513;-75
2021/09/14 07:55:25;;;;;;;10.60;9.30;;;24.20;61.20;;;;;;6244708;28;20418;-77
2021/09/14 07:58:27;;;;;;;9.20;7.78;;;24.40;60.40;;;;;;6244904;28;20429;-75
2021/09/14 08:01:30;;;;;;;11.07;9.50;;;24.60;60.00;;;;;;6244539;28;20430;-75
2021/09/14 08:04:33;;;;;;;10.38;9.48;;;24.90;59.50;;;;;;6244770;28;20492;-74
2021/09/14 08:07:35;;;;;;;10.50;9.43;;;24.90;58.50;;;;;;6246116;28;20485;-75
2021/09/14 08:10:37;;;;;;;10.35;9.35;;;25.00;58.70;;;;;;6244648;28;20429;-75
2021/09/14 08:13:39;;;;;;;11.25;8.82;;;25.10;58.60;;;;;;6246323;28;20446;-75
2021/09/14 08:16:41;;;;;;;9.52;8.55;;;25.20;58.80;;;;;;6250844;28;20505;-75
2021/09/14 08:19:44;;;;;;;10.53;9.43;;;25.30;58.00;;;;;;6247968;28;20439;-75
2021/09/14 08:22:46;;;;;;;13.50;8.65;;;25.50;57.40;;;;;;6245296;28;20426;-76
2021/09/14 08:25:48;;;;;;;10.05;7.45;;;25.70;56.50;;;;;;6244191;28;21048;-76
2021/09/14 08:28:50;;;;;;;9.27;7.65;;;25.80;56.70;;;;;;6244442;28;20498;-76
2021/09/14 08:31:52;;;;;;;11.17;8.13;;;25.90;56.70;;;;;;6245564;28;20904;-77
2021/09/14 08:34:55;;;;;;;11.10;7.07;;;25.90;56.70;;;;;;6246308;28;20493;-77
2021/09/14 08:37:58;;;;;;;8.55;7.53;;;25.90;56.70;;;;;;6245909;28;20497;-77
2021/09/14 08:41:01;;;;;;;9.77;7.22;;;26.10;56.50;;;;;;6246459;28;20442;-78
2021/09/14 08:44:04;;;;;;;12.40;7.13;;;26.30;56.30;;;;;;6247852;28;20607;-77
2021/09/14 08:47:07;;;;;;;8.98;7.28;;;26.40;55.80;;;;;;6247320;28;20419;-75
2021/09/14 08:50:11;;;;;;;9.02;6.78;;;26.30;56.00;;;;;;6244601;28;20422;-76
2021/09/14 08:53:13;;;;;;;7.20;5.90;;;26.30;55.90;;;;;;6244940;28;20897;-76
2021/09/14 08:56:15;;;;;;;9.13;6.38;;;26.10;56.90;;;;;;6245147;28;20542;-77
2021/09/14 08:59:28;;;;;;;8.60;6.90;;;26.10;57.60;;;;;;6244322;28;20523;-75
2021/09/14 09:02:29;;;;;;;7.07;6.38;;;26.00;57.30;;;;;;6244557;28;20415;-76
2021/09/14 09:05:35;;;;;;;12.32;6.47;;;26.00;57.80;;;;;;6244407;28;20415;-76
2021/09/14 09:08:37;;;;;;;10.70;7.17;;;26.30;57.30;;;;;;6244452;28;20576;-76
2021/09/14 09:11:39;;;;;;;24.98;8.95;;;26.50;56.20;;;;;;6245103;28;20903;-77
2021/09/14 09:14:42;;;;;;;10.88;8.25;;;26.80;55.20;;;;;;6244934;28;20904;-78
2021/09/14 09:17:46;;;;;;;11.18;6.82;;;27.00;54.30;;;;;;6244525;28;20429;-76
2021/09/14 09:20:50;;;;;;;10.77;8.30;;;27.10;54.70;;;;;;6244449;28;22743;-75
2021/09/14 09:23:56;;;;;;;10.60;7.50;;;27.30;53.30;;;;;;6244883;28;20445;-76
2021/09/14 09:26:58;;;;;;;11.43;8.65;;;27.40;52.80;;;;;;6244290;28;20785;-76
2021/09/14 09:30:01;;;;;;;10.95;8.77;;;27.40;52.90;;;;;;6243972;28;20444;-76
2021/09/14 09:33:07;;;;;;;8.57;6.87;;;27.50;52.20;;;;;;6244423;28;20421;-77
2021/09/14 09:36:11;;;;;;;9.48;7.38;;;27.60;52.50;;;;;;6246779;28;20438;-78
2021/09/14 09:39:14;;;;;;;8.85;7.55;;;27.60;52.30;;;;;;6249734;28;20569;-77
2021/09/14 09:42:16;;;;;;;10.03;6.67;;;27.80;52.30;;;;;;6248900;28;20434;-76
2021/09/14 09:45:20;;;;;;;10.48;7.20;;;27.90;51.30;;;;;;6249071;28;20419;-76
2021/09/14 09:48:22;;;;;;;7.63;6.75;;;28.10;50.60;;;;;;6249483;28;20441;-77
2021/09/14 09:51:25;;;;;;;9.73;7.57;;;28.30;50.10;;;;;;6249062;28;20414;-77
2021/09/14 09:54:27;;;;;;;7.60;6.53;;;28.50;49.50;;;;;;6249443;28;20446;-77
2021/09/14 09:57:30;;;;;;;10.57;5.93;;;28.70;49.40;;;;;;6248772;28;20414;-79
2021/09/14 10:00:34;;;;;;;8.97;6.43;;;28.90;49.60;;;;;;6249988;28;20994;-76
2021/09/14 10:03:45;;;;;;;10.80;5.68;;;29.00;48.30;;;;;;6248656;28;20435;-76
2021/09/14 10:06:51;;;;;;;13.00;5.85;;;28.90;48.40;;;;;;6248986;28;20415;-77
2021/09/14 10:09:54;;;;;;;7.63;5.07;;;29.10;47.70;;;;;;6243395;28;20419;-77
2021/09/14 10:13:02;;;;;;;8.23;5.65;;;29.30;47.50;;;;;;6233856;28;20516;-78
2021/09/14 10:16:05;;;;;;;10.43;5.50;;;29.50;46.70;;;;;;6223146;28;20464;-78
2021/09/14 10:19:12;;;;;;;8.30;5.25;;;29.50;46.60;;;;;;6222378;28;20536;-77
2021/09/14 10:22:24;;;;;;;6.25;4.97;;;29.30;47.40;;;;;;6222640;28;20424;-77
2021/09/14 10:25:26;;;;;;;6.17;4.70;;;29.10;47.90;;;;;;6222231;28;20428;-76
2021/09/14 10:28:28;;;;;;;7.15;5.57;;;29.00;48.20;;;;;;6222692;28;20972;-76
2021/09/14 10:31:31;;;;;;;7.18;5.30;;;29.10;47.70;;;;;;6241937;28;20422;-77
2021/09/14 10:34:36;;;;;;;6.25;5.65;;;29.20;47.70;;;;;;6247145;28;20968;-76
2021/09/14 10:37:39;;;;;;;6.60;5.63;;;29.40;47.70;;;;;;6247015;28;20538;-77
2021/09/14 10:40:44;;;;;;;7.55;5.30;;;29.70;46.90;;;;;;6246768;28;20977;-77
2021/09/14 10:43:55;;;;;;;7.43;5.47;;;29.60;47.20;;;;;;6247732;28;20971;-76
2021/09/14 10:47:08;;;;;;;6.25;5.57;;;29.50;47.10;;;;;;6245673;28;20796;-77
2021/09/14 10:50:15;;;;;;;5.27;4.70;;;29.20;47.80;;;;;;6246241;28;20423;-77
2021/09/14 10:53:25;;;;;;;6.55;5.00;;;29.00;48.30;;;;;;6246065;28;20510;-76
2021/09/14 10:56:29;;;;;;;8.93;6.00;;;29.00;48.80;;;;;;6246665;28;20922;-76
2021/09/14 10:59:31;;;;;;;6.57;4.82;;;29.00;48.50;;;;;;6245741;28;20574;-77
2021/09/14 11:02:33;;;;;;;7.00;5.50;;;29.10;48.50;;;;;;6246346;28;20513;-77
2021/09/14 11:05:36;;;;;;;6.70;6.00;;;29.10;47.80;;;;;;6245746;28;20468;-77
2021/09/14 11:08:40;;;;;;;5.90;5.07;;;29.00;48.90;;;;;;6245803;28;20521;-77
2021/09/14 11:11:42;;;;;;;7.82;5.45;;;28.90;48.70;;;;;;6242206;28;20436;-76
2021/09/14 11:14:45;;;;;;;6.18;5.53;;;28.80;49.80;;;;;;6240812;28;20462;-77
2021/09/14 11:17:49;;;;;;;10.13;5.82;;;28.80;50.20;;;;;;6245842;28;20473;-77
2021/09/14 11:20:51;;;;;;;13.27;6.40;;;28.70;50.20;;;;;;6245317;28;20414;-76
2021/09/14 11:23:54;;;;;;;11.75;5.68;;;28.70;50.10;;;;;;6246358;28;20521;-77
2021/09/14 11:26:59;;;;;;;8.32;5.28;;;28.60;50.30;;;;;;6248099;28;20423;-78
2021/09/14 11:30:01;;;;;;;8.45;5.18;;;28.60;49.70;;;;;;6249644;28;20422;-77
2021/09/14 11:33:04;;;;;;;6.53;5.35;;;28.50;50.70;;;;;;6244068;28;20815;-77
2021/09/14 11:36:08;;;;;;;8.13;5.22;;;28.40;51.00;;;;;;6245822;28;20573;-77
2021/09/14 11:39:11;;;;;;;8.27;6.00;;;28.40;51.40;;;;;;6244571;28;20419;-76
2021/09/14 11:42:13;;;;;;;10.18;5.70;;;28.40;50.80;;;;;;6244998;28;20926;-75
2021/09/14 11:45:15;;;;;;;10.35;5.10;;;28.20;51.40;;;;;;6244977;28;20830;-75
2021/09/14 11:48:19;;;;;;;12.32;6.18;;;28.10;52.40;;;;;;6245811;28;20517;-76
2021/09/14 11:51:22;;;;;;;9.32;5.50;;;28.20;52.10;;;;;;6244855;28;20553;-75
2021/09/14 11:54:27;;;;;;;7.60;5.30;;;28.30;51.60;;;;;;6244731;28;20415;-76
2021/09/14 11:57:28;;;;;;;8.53;5.60;;;28.40;51.60;;;;;;6244894;28;20473;-76
2021/09/14 12:00:39;;;;;;;11.25;5.97;;;28.50;51.40;;;;;;6243884;28;20526;-75
2021/09/14 12:03:44;;;;;;;5.70;5.13;;;28.70;50.50;;;;;;6245096;28;20936;-76
2021/09/14 12:06:51;;;;;;;28.00;8.65;;;28.90;50.50;;;;;;6244371;28;20913;-75
2021/09/14 12:10:04;;;;;;;9.35;5.63;;;29.10;50.30;;;;;;6246082;28;20419;-77
2021/09/14 12:13:14;;;;;;;8.60;5.93;;;29.30;48.70;;;;;;6244683;28;20443;-76
2021/09/14 12:16:24;;;;;;;8.45;5.70;;;29.60;48.60;;;;;;6242292;28;20566;-76
2021/09/14 12:19:28;;;;;;;8.82;5.32;;;30.00;48.00;;;;;;6244318;28;20412;-77
2021/09/14 12:22:30;;;;;;;6.93;5.63;;;30.30;48.00;;;;;;6244113;28;20800;-77
2021/09/14 12:25:33;;;;;;;7.25;5.55;;;30.50;47.00;;;;;;6244171;28;20415;-76
2021/09/14 12:28:34;;;;;;;7.23;5.23;;;30.60;47.40;;;;;;6244476;28;20507;-77
2021/09/14 12:31:39;;;;;;;9.80;5.05;;;30.70;47.20;;;;;;6243270;28;20418;-76
2021/09/14 12:34:40;;;;;;;6.82;5.25;;;30.90;47.20;;;;;;6244309;28;20488;-76
2021/09/14 12:37:42;;;;;;;8.25;4.97;;;30.90;46.90;;;;;;6244467;28;20419;-76
2021/09/14 12:40:45;;;;;;;6.43;4.57;;;30.70;46.50;;;;;;6244338;28;20521;-76
2021/09/14 12:43:48;;;;;;;5.60;4.50;;;30.60;47.20;;;;;;6244362;28;20596;-75
2021/09/14 12:46:55;;;;;;;6.85;4.63;;;30.50;48.30;;;;;;6244031;28;20524;-76
2021/09/14 12:49:57;;;;;;;9.77;5.13;;;30.20;48.20;;;;;;6243511;28;20415;-75
2021/09/14 12:52:59;;;;;;;5.55;5.05;;;30.10;48.70;;;;;;6243846;28;21025;-75
2021/09/14 12:56:04;;;;;;;7.45;5.20;;;30.20;48.10;;;;;;6244317;28;20431;-75
2021/09/14 12:59:06;;;;;;;7.07;4.90;;;30.10;47.80;;;;;;6243624;28;20541;-76
2021/09/14 13:02:08;;;;;;;10.05;4.25;;;30.10;47.60;;;;;;6243136;28;20419;-76
2021/09/14 13:05:11;;;;;;;5.23;4.73;;;30.10;47.00;;;;;;6243643;28;20414;-75
2021/09/14 13:08:12;;;;;;;6.40;4.97;;;30.20;47.40;;;;;;6244232;28;20453;-76
2021/09/14 13:11:16;;;;;;;6.80;4.97;;;30.20;47.50;;;;;;6244575;28;20429;-76
2021/09/14 13:17:37;;;;;;;9.80;5.55;;;30.30;48.50;;;;;;6223737;28;20473;-76
2021/09/14 13:20:38;;;;;;;8.55;4.88;;;30.50;47.20;;;;;;6224022;28;20464;-76
2021/09/14 13:23:42;;;;;;;10.07;5.25;;;30.80;45.90;;;;;;6223884;28;20646;-75
2021/09/14 13:26:45;;;;;;;7.78;4.60;;;31.10;45.50;;;;;;6223316;28;20910;-74
2021/09/14 13:29:47;;;;;;;10.13;5.15;;;31.60;44.30;;;;;;6228573;28;20556;-76
2021/09/14 13:32:49;;;;;;;10.27;5.00;;;31.90;45.60;;;;;;6247794;28;21209;-76
2021/09/14 13:35:51;;;;;;;7.93;4.37;;;32.20;44.80;;;;;;6248416;28;20520;-75
2021/09/14 13:38:53;;;;;;;9.30;4.63;;;32.50;44.00;;;;;;6247664;28;20982;-75
2021/09/14 13:41:57;;;;;;;7.80;4.80;;;32.70;44.30;;;;;;6247963;28;20498;-75
2021/09/14 13:48:26;;;;;;;6.72;5.15;;;32.70;43.00;;;;;;6248120;28;20921;-75
2021/09/14 13:51:29;;;;;;;9.73;4.97;;;32.60;43.40;;;;;;6247128;28;20572;-75
2021/09/14 13:54:30;;;;;;;10.07;4.93;;;32.70;43.70;;;;;;6248051;28;20482;-77
2021/09/14 13:57:34;;;;;;;5.53;4.30;;;32.80;43.60;;;;;;6248967;28;20916;-77
2021/09/14 14:00:35;;;;;;;7.30;4.82;;;33.00;42.70;;;;;;6248086;28;20430;-77
2021/09/14 14:03:38;;;;;;;12.50;4.83;;;32.90;42.70;;;;;;6248700;28;20993;-75
2021/09/14 14:06:40;;;;;;;8.68;5.38;;;32.80;42.70;;;;;;6247115;28;20486;-76
2021/09/14 14:09:42;;;;;;;6.25;4.63;;;32.60;43.80;;;;;;6247039;28;20502;-75
2021/09/14 14:12:45;;;;;;;8.95;5.03;;;32.40;43.60;;;;;;6247075;28;20979;-75
2021/09/14 14:15:47;;;;;;;16.85;5.28;;;32.40;43.70;;;;;;6238259;28;20558;-75
2021/09/14 14:18:49;;;;;;;6.13;4.50;;;32.40;43.70;;;;;;6223480;28;20452;-75
2021/09/14 14:21:51;;;;;;;8.33;4.90;;;32.40;43.60;;;;;;6222175;28;20475;-75
2021/09/14 14:24:52;;;;;;;6.18;4.45;;;32.20;44.50;;;;;;6221975;28;20490;-75
2021/09/14 14:27:56;;;;;;;6.85;4.70;;;32.00;45.10;;;;;;6222641;28;20472;-76
2021/09/14 14:30:57;;;;;;;6.18;4.70;;;31.80;46.00;;;;;;6237059;28;21056;-76
2021/09/14 14:33:59;;;;;;;6.65;5.80;;;31.50;45.50;;;;;;6246531;28;20506;-76
2021/09/14 14:37:01;;;;;;;5.88;4.60;;;31.40;46.40;;;;;;6247160;28;20473;-76
2021/09/14 14:40:03;;;;;;;5.13;4.63;;;31.20;47.10;;;;;;6248140;28;20521;-77
2021/09/14 14:43:06;;;;;;;8.55;5.30;;;31.00;48.20;;;;;;6246686;28;20585;-77
2021/09/14 14:46:09;;;;;;;10.33;5.20;;;30.80;47.60;;;;;;6246387;28;20439;-77
2021/09/14 14:49:11;;;;;;;7.60;5.60;;;30.50;48.30;;;;;;6245986;28;20423;-76
2021/09/14 14:52:13;;;;;;;8.57;5.05;;;30.30;50.10;;;;;;6246724;28;20799;-76
2021/09/14 14:55:15;;;;;;;10.40;5.30;;;30.10;50.80;;;;;;6246211;28;20461;-76
2021/09/14 14:58:19;;;;;;;8.82;5.13;;;29.90;50.80;;;;;;6245907;28;20415;-76
2021/09/14 15:01:20;;;;;;;10.73;5.63;;;29.70;51.90;;;;;;6245858;28;20501;-77
2021/09/14 15:04:22;;;;;;;7.88;5.45;;;29.60;51.20;;;;;;6247205;28;20427;-77
2021/09/14 15:07:24;;;;;;;9.07;5.00;;;29.50;52.00;;;;;;6246559;28;20557;-76
2021/09/14 15:10:26;;;;;;;6.03;5.32;;;29.40;52.70;;;;;;6246351;28;20465;-77
2021/09/14 15:13:29;;;;;;;13.77;5.82;;;29.30;53.20;;;;;;6245840;28;20477;-77
2021/09/14 15:16:31;;;;;;;7.38;5.18;;;29.10;52.90;;;;;;6239334;28;20968;-77
2021/09/14 15:19:33;;;;;;;10.73;6.32;;;29.00;54.70;;;;;;6242881;28;20569;-77
2021/09/14 15:22:35;;;;;;;6.53;5.32;;;29.00;54.60;;;;;;6246012;28;20502;-76
2021/09/14 15:25:36;;;;;;;5.55;5.00;;;28.90;54.40;;;;;;6245297;28;20514;-76
2021/09/14 15:28:40;;;;;;;7.95;5.90;;;28.90;53.70;;;;;;6244807;28;20521;-76
2021/09/14 15:31:41;;;;;;;9.65;5.32;;;28.80;54.00;;;;;;6245796;28;20529;-77
2021/09/14 15:34:43;;;;;;;7.15;5.60;;;28.80;54.90;;;;;;6245055;28;20498;-76
2021/09/14 15:37:45;;;;;;;6.95;6.30;;;28.70;55.30;;;;;;6246115;28;20477;-79
2021/09/14 15:40:48;;;;;;;7.88;5.43;;;28.70;55.90;;;;;;6250402;28;20473;-79
2021/09/14 15:43:52;;;;;;;9.02;6.40;;;28.60;55.00;;;;;;6252293;28;20485;-77
2021/09/14 15:46:55;;;;;;;7.22;6.00;;;28.60;55.80;;;;;;6247264;28;20781;-77
2021/09/14 15:49:57;;;;;;;8.05;7.22;;;28.50;55.90;;;;;;6247478;28;20493;-76
2021/09/14 15:52:59;;;;;;;10.18;6.15;;;28.40;56.80;;;;;;6246791;28;20513;-77
2021/09/14 15:56:02;;;;;;;8.57;6.32;;;28.30;56.90;;;;;;6248377;28;20427;-77
2021/09/14 15:59:05;;;;;;;7.73;5.77;;;28.20;56.40;;;;;;6246443;28;20829;-75
2021/09/14 16:02:07;;;;;;;8.10;5.20;;;28.20;56.90;;;;;;6244417;28;20438;-75
2021/09/14 16:05:09;;;;;;;7.47;5.97;;;28.10;58.60;;;;;;6244774;28;20584;-75
2021/09/14 16:08:11;;;;;;;10.50;5.85;;;28.00;59.70;;;;;;6245341;28;20457;-77
2021/09/14 16:11:14;;;;;;;7.13;6.20;;;27.90;59.90;;;;;;6244167;28;20475;-76
2021/09/14 16:14:18;;;;;;;7.28;6.47;;;27.90;59.00;;;;;;6244562;28;20411;-74
2021/09/14 16:17:19;;;;;;;7.37;6.10;;;27.80;60.50;;;;;;6237681;28;20557;-77
2021/09/14 16:20:23;;;;;;;13.45;7.28;;;27.70;61.20;;;;;;6222315;28;20907;-77
2021/09/14 16:23:24;;;;;;;19.48;7.07;;;27.50;62.20;;;;;;6220001;28;21017;-77
2021/09/14 16:26:26;;;;;;;59.88;39.55;;;27.30;65.30;;;;;;6219577;28;20435;-77
2021/09/14 16:29:31;;;;;;;38.92;27.88;;;27.10;67.30;;;;;;6222821;28;20418;-77
2021/09/14 16:32:35;;;;;;;20.48;16.63;;;27.00;68.10;;;;;;6243770;28;20816;-77
2021/09/14 16:35:38;;;;;;;23.77;15.88;;;26.80;68.30;;;;;;6244564;28;20462;-74
2021/09/14 16:38:39;;;;;;;8.90;7.60;;;26.60;69.40;;;;;;6244187;28;20475;-75
2021/09/14 16:41:41;;;;;;;9.63;8.15;;;26.50;69.20;;;;;;6243976;28;20423;-74